Weather at Paso De Los Indios Airport

Public forecast

Using degrees Celsius for public forecast. Weather courtesy of forecast.io.

Closest aviation weather report (METAR) to Paso De Los Indios Airport

Report is more than 6 hours old.

Closest report is Brigadier Antonio Parodi Airport, 107.8 nm (199.7 km) WNW. Retrieved 2021/07/19 17:06 UTC (5 days ago):

SAVE 191706Z 29013G34KT 230V360 9999 FEW038TCU SCT040 13/02 Q1015

Closest aviation forecast (TAF) to Paso De Los Indios Airport

Forecast is more than 12 hours old.

Closest forecast is Brigadier Antonio Parodi Airport, 107.8 nm (199.7 km) WNW. Retrieved 2021-06-01 00:20 UTC (2 months ago):

TAF SAVE 022300Z 0300/0324 VRB03KT 9999 SCT030 TX21/0320Z TN06/0310Z PROB40 TEMPO 0306/0311 3000 BR SCT015 BECMG 0315/0317 CAVOK